Time;durP1;ratioP1;P1;durP2;ratioP2;P2;SDS_P1;SDS_P2;PMS_P1;PMS_P2;Temp;Humidity;BMP_temperature;BMP_pressure;BME280_temperature;BME280_humidity;BME280_pressure;Samples;Min_cycle;Max_cycle;Signal;HPM_P1;HPM_P2
2022/05/21 00:00:30;;;;;;;6.50;4.05;;;14.10;66.70;;;;;;5003236;28;20085;-75
2022/05/21 00:02:56;;;;;;;7.72;4.30;;;14.20;66.90;;;;;;5014626;28;20128;-75
2022/05/21 00:05:23;;;;;;;7.32;4.50;;;14.10;66.90;;;;;;4998196;28;20042;-75
2022/05/21 00:07:50;;;;;;;12.13;7.47;;;14.10;67.10;;;;;;4997123;28;20103;-75
2022/05/21 00:10:17;;;;;;;9.25;7.05;;;14.10;67.30;;;;;;4997789;28;20181;-74
2022/05/21 00:12:43;;;;;;;8.73;5.78;;;14.10;67.70;;;;;;5008095;28;20125;-75
2022/05/21 00:15:13;;;;;;;9.40;7.82;;;14.10;68.00;;;;;;5011787;28;20038;-75
2022/05/21 00:17:38;;;;;;;14.30;8.45;;;14.00;68.20;;;;;;5005943;28;20058;-74
2022/05/21 00:20:07;;;;;;;9.75;5.68;;;14.00;68.50;;;;;;4994754;28;20042;-74
2022/05/21 00:22:32;;;;;;;9.60;7.63;;;14.00;68.70;;;;;;4996359;28;20050;-75
2022/05/21 00:24:58;;;;;;;14.40;9.20;;;13.90;68.70;;;;;;4996293;28;20037;-74
2022/05/21 00:27:24;;;;;;;14.82;9.55;;;13.90;69.00;;;;;;5004519;28;20077;-75
2022/05/21 00:29:49;;;;;;;15.30;11.00;;;13.90;69.50;;;;;;5009205;28;20089;-75
2022/05/21 00:32:15;;;;;;;8.48;6.68;;;13.90;69.80;;;;;;4996634;28;20093;-75
2022/05/21 00:34:41;;;;;;;12.50;7.35;;;13.90;69.90;;;;;;4994994;28;20085;-75
2022/05/21 00:37:06;;;;;;;14.55;10.98;;;13.90;69.90;;;;;;4996397;28;20046;-75
2022/05/21 00:39:32;;;;;;;12.50;8.38;;;13.80;69.90;;;;;;4996313;28;20070;-75
2022/05/21 00:42:06;;;;;;;14.38;9.70;;;13.90;70.00;;;;;;5011542;28;20042;-75
2022/05/21 00:44:31;;;;;;;16.20;9.35;;;13.90;70.20;;;;;;4996029;28;20056;-75
2022/05/21 00:46:57;;;;;;;17.45;12.10;;;13.80;69.90;;;;;;5004981;28;20124;-75
2022/05/21 00:49:28;;;;;;;16.65;12.02;;;13.80;70.10;;;;;;5014122;28;20042;-74
2022/05/21 00:51:57;;;;;;;16.45;12.07;;;13.90;70.30;;;;;;4990545;28;20498;-75
2022/05/21 00:54:28;;;;;;;15.77;11.05;;;13.90;70.40;;;;;;4997233;28;20490;-75
2022/05/21 00:57:01;;;;;;;17.50;13.50;;;13.80;70.30;;;;;;4997701;28;20121;-74
2022/05/21 01:02:14;;;;;;;23.50;14.55;;;13.90;70.60;;;;;;4995973;28;20493;-76
2022/05/21 01:04:39;;;;;;;20.15;14.27;;;13.90;70.70;;;;;;4995981;28;20132;-75
2022/05/21 01:07:06;;;;;;;19.13;14.20;;;13.90;70.80;;;;;;4998306;28;20442;-76
2022/05/21 01:09:33;;;;;;;22.98;15.68;;;13.90;70.80;;;;;;5012778;28;20081;-75
2022/05/21 01:12:02;;;;;;;19.10;14.73;;;13.90;70.90;;;;;;4997959;28;20042;-75
2022/05/21 01:14:29;;;;;;;18.42;13.20;;;13.90;70.90;;;;;;5008299;28;20089;-75
2022/05/21 01:16:55;;;;;;;15.60;11.82;;;13.90;71.00;;;;;;4994875;28;20508;-75
2022/05/21 01:19:20;;;;;;;18.27;14.15;;;14.00;71.00;;;;;;5007686;28;20054;-75
2022/05/21 01:21:47;;;;;;;19.98;14.60;;;13.90;70.90;;;;;;4996702;28;20126;-75
2022/05/21 01:24:13;;;;;;;14.75;12.63;;;13.90;71.10;;;;;;4995343;28;20043;-75
2022/05/21 01:26:40;;;;;;;18.77;13.30;;;14.00;71.20;;;;;;5005677;28;20055;-75
2022/05/21 01:29:12;;;;;;;22.23;14.23;;;13.90;71.10;;;;;;4998921;28;20447;-75
2022/05/21 01:31:38;;;;;;;22.38;14.20;;;14.00;71.30;;;;;;5010639;28;20054;-75
2022/05/21 01:34:04;;;;;;;17.65;13.50;;;14.00;71.50;;;;;;4996570;28;20066;-75
2022/05/21 01:36:30;;;;;;;17.92;12.50;;;14.10;71.60;;;;;;5010184;28;20493;-75
2022/05/21 01:38:56;;;;;;;18.15;14.15;;;14.00;71.50;;;;;;4999622;28;20034;-75
2022/05/21 01:41:22;;;;;;;16.85;13.25;;;14.00;71.70;;;;;;4995756;28;20046;-75
2022/05/21 01:46:32;;;;;;;17.05;11.70;;;14.10;72.00;;;;;;4995459;28;20093;-75
2022/05/21 01:48:58;;;;;;;17.35;11.27;;;14.00;71.90;;;;;;4995818;28;20086;-75
2022/05/21 01:51:23;;;;;;;14.85;11.90;;;14.10;72.00;;;;;;4995863;28;20407;-75
2022/05/21 01:53:49;;;;;;;19.35;13.20;;;14.10;71.90;;;;;;5006069;28;20042;-75
2022/05/21 01:56:15;;;;;;;18.88;11.13;;;14.20;72.00;;;;;;5010994;28;20053;-74
2022/05/21 01:58:42;;;;;;;19.67;12.57;;;14.10;72.00;;;;;;4994849;28;20040;-75
2022/05/21 02:01:09;;;;;;;19.45;11.40;;;14.10;72.00;;;;;;4995918;28;20054;-75
2022/05/21 02:03:35;;;;;;;18.95;11.55;;;14.20;72.50;;;;;;5001274;28;20054;-75
2022/05/21 02:06:01;;;;;;;18.92;12.27;;;14.10;72.10;;;;;;4994775;28;20082;-75
2022/05/21 02:08:27;;;;;;;17.90;13.02;;;14.10;72.10;;;;;;4993335;28;20046;-74
2022/05/21 02:10:53;;;;;;;19.20;12.00;;;14.20;72.30;;;;;;4999162;28;20112;-74
2022/05/21 02:13:25;;;;;;;19.75;11.48;;;14.20;72.40;;;;;;4994207;28;20446;-74
2022/05/21 02:15:51;;;;;;;17.27;13.00;;;14.20;72.70;;;;;;4995196;28;20402;-75
2022/05/21 02:18:17;;;;;;;17.08;12.85;;;14.20;72.30;;;;;;4994575;28;20125;-74
2022/05/21 02:20:43;;;;;;;17.45;12.88;;;14.20;72.30;;;;;;4994276;28;20170;-74
2022/05/21 02:23:10;;;;;;;16.45;11.88;;;14.10;72.20;;;;;;4995810;28;20042;-75
2022/05/21 02:25:36;;;;;;;20.50;13.32;;;14.20;72.30;;;;;;5000932;28;20392;-74
2022/05/21 02:28:02;;;;;;;20.15;12.25;;;14.30;72.30;;;;;;4994133;28;20501;-74
2022/05/21 02:30:28;;;;;;;15.10;10.50;;;14.30;72.40;;;;;;4995380;28;20070;-75
2022/05/21 02:32:54;;;;;;;16.98;10.20;;;14.30;72.20;;;;;;4994253;28;20043;-75
2022/05/21 02:35:19;;;;;;;17.10;11.65;;;14.30;72.10;;;;;;4994869;28;20134;-75
2022/05/21 02:40:30;;;;;;;17.00;11.55;;;14.30;72.00;;;;;;4994177;28;20042;-75
2022/05/21 02:42:56;;;;;;;17.52;11.35;;;14.40;72.00;;;;;;5022940;28;20042;-75
2022/05/21 02:45:25;;;;;;;17.02;9.38;;;14.40;72.10;;;;;;4995043;28;20046;-75
2022/05/21 02:47:51;;;;;;;12.98;9.65;;;14.40;72.00;;;;;;4994980;28;20509;-75
2022/05/21 02:50:21;;;;;;;16.20;9.55;;;14.40;71.90;;;;;;4992929;28;20042;-75
2022/05/21 02:52:46;;;;;;;15.27;9.40;;;14.40;72.00;;;;;;4995925;28;20125;-75
2022/05/21 02:55:13;;;;;;;14.57;8.63;;;14.50;72.10;;;;;;4996026;28;20125;-75
2022/05/21 02:57:39;;;;;;;13.60;8.32;;;14.50;72.10;;;;;;4994960;28;20046;-74
2022/05/21 03:00:09;;;;;;;14.50;7.90;;;14.50;72.00;;;;;;4995970;28;20057;-75
2022/05/21 03:02:35;;;;;;;13.27;7.18;;;14.50;72.00;;;;;;4999005;28;20053;-75
2022/05/21 03:05:03;;;;;;;14.07;6.55;;;14.50;71.80;;;;;;4998025;28;20046;-75
2022/05/21 03:07:29;;;;;;;11.48;6.22;;;14.50;71.80;;;;;;4993950;28;20389;-75
2022/05/21 03:12:39;;;;;;;13.50;4.95;;;14.60;71.80;;;;;;4994406;28;20054;-75
2022/05/21 03:15:06;;;;;;;12.75;5.03;;;14.60;71.80;;;;;;5006946;28;20416;-75
2022/05/21 03:17:32;;;;;;;13.75;4.53;;;14.60;71.80;;;;;;4993961;28;20050;-75
2022/05/21 03:19:57;;;;;;;16.13;4.78;;;14.60;71.80;;;;;;4995778;28;20446;-75
2022/05/21 03:22:23;;;;;;;10.75;4.22;;;14.60;71.80;;;;;;4994121;28;20053;-76
2022/05/21 03:24:48;;;;;;;13.55;4.15;;;14.60;71.60;;;;;;4994116;28;20101;-75
2022/05/21 03:27:14;;;;;;;17.10;5.43;;;14.60;71.60;;;;;;4994906;28;20117;-75
2022/05/21 03:29:39;;;;;;;14.88;3.80;;;14.70;71.60;;;;;;4996869;28;20092;-75
2022/05/21 03:32:07;;;;;;;13.27;3.92;;;14.70;71.60;;;;;;4998523;28;20054;-75
2022/05/21 03:34:33;;;;;;;14.63;4.35;;;14.70;71.50;;;;;;5001716;28;20125;-75
2022/05/21 03:36:59;;;;;;;15.52;4.32;;;14.70;71.50;;;;;;5002333;28;20137;-75
2022/05/21 03:39:25;;;;;;;14.30;4.70;;;14.70;71.40;;;;;;4996267;28;20105;-75
2022/05/21 03:41:50;;;;;;;13.23;3.38;;;14.70;71.30;;;;;;4999770;28;20046;-76
2022/05/21 03:44:16;;;;;;;14.93;4.25;;;14.70;71.30;;;;;;5000507;28;20049;-76
2022/05/21 03:46:42;;;;;;;14.82;3.78;;;14.70;71.20;;;;;;5005733;28;20042;-75
2022/05/21 03:49:08;;;;;;;11.07;2.97;;;14.70;71.10;;;;;;5003800;28;20569;-76
2022/05/21 03:51:34;;;;;;;12.13;3.20;;;14.70;71.00;;;;;;5003860;28;20038;-75
2022/05/21 03:53:59;;;;;;;14.07;3.63;;;14.70;71.00;;;;;;4998391;28;20046;-75
2022/05/21 03:56:25;;;;;;;16.15;3.70;;;14.70;71.00;;;;;;4998810;28;20092;-76
2022/05/21 03:58:51;;;;;;;15.20;3.53;;;14.70;71.00;;;;;;4997345;28;20493;-75
2022/05/21 04:01:16;;;;;;;14.88;3.47;;;14.70;71.00;;;;;;4997938;28;20062;-76
2022/05/21 04:03:43;;;;;;;15.63;3.97;;;14.70;70.90;;;;;;5003174;28;20043;-77
2022/05/21 04:06:10;;;;;;;11.35;3.22;;;14.70;70.90;;;;;;5002428;28;20413;-76
2022/05/21 04:08:36;;;;;;;12.23;3.97;;;14.70;70.90;;;;;;4997036;28;20054;-77
2022/05/21 04:11:02;;;;;;;16.45;3.03;;;14.80;71.00;;;;;;4997946;28;20050;-76
2022/05/21 04:13:28;;;;;;;13.80;2.70;;;14.70;71.00;;;;;;5000231;28;20481;-76
2022/05/21 04:15:54;;;;;;;14.15;3.80;;;14.70;71.00;;;;;;4996641;28;20565;-76
2022/05/21 04:18:20;;;;;;;12.57;2.95;;;14.70;71.00;;;;;;5001859;28;20133;-76
2022/05/21 04:20:46;;;;;;;10.98;3.00;;;14.80;70.90;;;;;;4995386;28;20053;-76
2022/05/21 04:23:12;;;;;;;14.43;3.95;;;14.70;70.80;;;;;;4995846;28;20415;-77
2022/05/21 04:25:38;;;;;;;12.77;3.45;;;14.80;70.90;;;;;;4996439;28;20454;-76
2022/05/21 04:28:04;;;;;;;13.35;3.10;;;14.70;70.80;;;;;;5003778;28;20051;-76
2022/05/21 04:30:31;;;;;;;12.55;3.55;;;14.80;70.80;;;;;;4995734;28;20043;-76
2022/05/21 04:32:58;;;;;;;13.52;4.22;;;14.80;70.90;;;;;;4996156;28;20049;-76
2022/05/21 04:35:25;;;;;;;14.00;3.20;;;14.80;70.70;;;;;;5007464;28;20502;-76
2022/05/21 04:37:51;;;;;;;11.57;3.00;;;14.80;70.60;;;;;;5008439;28;20405;-76
2022/05/21 04:40:20;;;;;;;12.27;3.92;;;14.80;70.70;;;;;;4995896;28;20050;-77
2022/05/21 04:42:46;;;;;;;12.55;3.38;;;14.80;70.80;;;;;;4996575;28;20039;-77
2022/05/21 04:45:13;;;;;;;11.52;2.78;;;14.80;70.60;;;;;;4996711;28;20057;-76
2022/05/21 04:47:39;;;;;;;17.77;3.53;;;14.80;70.50;;;;;;5008657;28;20049;-76
2022/05/21 04:50:10;;;;;;;14.18;3.88;;;14.80;70.40;;;;;;4998092;28;20397;-76
2022/05/21 04:52:37;;;;;;;12.20;3.03;;;14.80;70.40;;;;;;4994923;28;20054;-76
2022/05/21 04:55:05;;;;;;;10.68;2.88;;;14.80;70.40;;;;;;4995778;28;20049;-76
2022/05/21 04:57:31;;;;;;;7.70;2.63;;;14.80;70.40;;;;;;4995859;28;20086;-76
2022/05/21 04:59:57;;;;;;;12.27;3.72;;;14.80;70.20;;;;;;5001761;28;20126;-76
2022/05/21 05:02:22;;;;;;;8.18;2.30;;;14.80;70.20;;;;;;4995358;28;20469;-76
2022/05/21 05:04:48;;;;;;;12.48;2.50;;;14.80;70.10;;;;;;4995719;28;20086;-76
2022/05/21 05:07:14;;;;;;;9.50;2.92;;;14.90;70.10;;;;;;4996896;28;20069;-76
2022/05/21 05:09:44;;;;;;;12.15;4.22;;;14.90;70.00;;;;;;4996209;28;20104;-76
2022/05/21 05:12:10;;;;;;;10.25;2.58;;;14.90;70.00;;;;;;5010895;28;20038;-77
2022/05/21 05:14:36;;;;;;;12.38;3.03;;;14.90;70.20;;;;;;4995831;28;20053;-76
2022/05/21 05:17:03;;;;;;;11.93;4.00;;;14.90;70.50;;;;;;4996474;28;20117;-76
2022/05/21 05:19:30;;;;;;;9.73;3.30;;;15.00;70.40;;;;;;4994316;28;20466;-76
2022/05/21 05:21:56;;;;;;;12.30;2.45;;;15.00;70.20;;;;;;5019652;28;20489;-76
2022/05/21 05:24:22;;;;;;;9.23;2.72;;;15.10;70.00;;;;;;4995178;28;20046;-76
2022/05/21 05:26:47;;;;;;;12.30;2.70;;;15.10;69.70;;;;;;4995183;28;20046;-76
2022/05/21 05:29:13;;;;;;;11.73;2.78;;;15.20;69.60;;;;;;4995402;28;20058;-76
2022/05/21 05:31:39;;;;;;;13.02;2.75;;;15.20;69.30;;;;;;4995786;28;20089;-76
2022/05/21 05:34:05;;;;;;;8.63;2.63;;;15.20;69.10;;;;;;4999304;28;20038;-76
2022/05/21 05:36:30;;;;;;;10.20;2.53;;;15.30;69.10;;;;;;4995200;28;20084;-76
2022/05/21 05:38:59;;;;;;;11.88;3.17;;;15.30;69.00;;;;;;4996603;28;20088;-75
2022/05/21 05:41:26;;;;;;;9.90;2.33;;;15.30;69.00;;;;;;4994754;28;20042;-76
2022/05/21 05:43:56;;;;;;;12.35;3.00;;;15.30;69.40;;;;;;5001801;28;20064;-76
2022/05/21 05:46:23;;;;;;;12.63;3.08;;;15.40;69.70;;;;;;4996819;28;20058;-76
2022/05/21 05:48:49;;;;;;;12.30;3.55;;;15.60;69.70;;;;;;4994710;28;20052;-76
2022/05/21 05:51:16;;;;;;;11.02;3.00;;;15.80;69.20;;;;;;4994274;28;20038;-76
2022/05/21 05:53:43;;;;;;;11.05;2.72;;;15.90;68.50;;;;;;5003842;28;20486;-76
2022/05/21 05:56:09;;;;;;;12.85;3.10;;;16.00;68.10;;;;;;4995766;28;20034;-76
2022/05/21 06:01:20;;;;;;;;;;;16.30;67.80;;;;;;5026744;28;20074;-75
2022/05/21 06:03:46;;;;;;;8.65;2.58;;;16.40;67.20;;;;;;5015242;28;20012;-76
2022/05/21 06:06:11;;;;;;;12.82;3.63;;;16.50;67.30;;;;;;4996582;28;20459;-76
2022/05/21 06:08:37;;;;;;;11.93;3.40;;;16.70;66.80;;;;;;5008735;28;20398;-75
2022/05/21 06:11:03;;;;;;;14.48;3.15;;;16.80;66.10;;;;;;4993423;28;20038;-76
2022/05/21 06:13:28;;;;;;;10.18;2.75;;;16.90;66.10;;;;;;4995793;28;20130;-76
2022/05/21 06:15:54;;;;;;;9.10;2.42;;;16.90;65.30;;;;;;4994078;28;20053;-76
2022/05/21 06:18:20;;;;;;;16.88;3.33;;;17.00;65.20;;;;;;4995833;28;20149;-76
2022/05/21 06:20:48;;;;;;;9.13;2.97;;;17.10;64.80;;;;;;4994309;28;20054;-76
2022/05/21 06:23:13;;;;;;;11.07;3.15;;;17.20;64.40;;;;;;4994486;28;20046;-76
2022/05/21 06:25:40;;;;;;;10.75;2.80;;;17.20;63.80;;;;;;4995272;28;20142;-76
2022/05/21 06:28:06;;;;;;;14.57;3.67;;;17.30;64.00;;;;;;4994989;28;20053;-76
2022/05/21 06:30:35;;;;;;;8.95;2.08;;;17.40;63.80;;;;;;4993893;28;20051;-76
2022/05/21 06:33:17;;;;;;;11.15;3.15;;;17.50;63.80;;;;;;4986962;28;20423;-77
2022/05/21 06:35:47;;;;;;;17.80;3.90;;;17.50;63.60;;;;;;4989377;28;20185;-76
2022/05/21 06:38:13;;;;;;;10.40;2.60;;;17.50;63.40;;;;;;4995141;28;20038;-76
2022/05/21 06:40:39;;;;;;;13.02;3.63;;;17.50;63.00;;;;;;5010463;28;20061;-77
2022/05/21 06:43:05;;;;;;;11.38;2.40;;;17.50;62.90;;;;;;5002578;28;20456;-77
2022/05/21 06:45:32;;;;;;;7.40;2.50;;;17.50;62.70;;;;;;4994757;28;20054;-76
2022/05/21 06:48:07;;;;;;;11.93;2.53;;;17.60;62.90;;;;;;4974957;28;20047;-77
2022/05/21 06:50:34;;;;;;;13.00;3.17;;;17.50;62.60;;;;;;4985245;28;20085;-77
2022/05/21 06:52:59;;;;;;;9.00;2.30;;;17.60;62.60;;;;;;4986994;28;20455;-77
2022/05/21 06:55:26;;;;;;;9.70;2.80;;;17.60;62.60;;;;;;4994132;28;20121;-77
2022/05/21 06:57:52;;;;;;;9.85;2.50;;;17.70;63.00;;;;;;4996697;28;20125;-77
2022/05/21 07:00:21;;;;;;;12.38;3.17;;;17.80;62.80;;;;;;4994803;28;20477;-77
2022/05/21 07:02:48;;;;;;;12.55;2.90;;;17.80;62.80;;;;;;4990583;28;20048;-76
2022/05/21 07:08:00;;;;;;;7.38;2.03;;;18.20;62.70;;;;;;5000547;28;20054;-76
2022/05/21 07:10:30;;;;;;;8.35;2.38;;;18.30;61.90;;;;;;4998288;28;20148;-75
2022/05/21 07:12:56;;;;;;;9.82;2.40;;;18.50;61.50;;;;;;4997624;28;20129;-75
2022/05/21 07:15:22;;;;;;;9.65;2.15;;;18.60;61.70;;;;;;5009050;28;20038;-75
2022/05/21 07:17:48;;;;;;;8.40;2.33;;;18.80;61.10;;;;;;4998278;28;20038;-75
2022/05/21 07:20:21;;;;;;;7.80;2.00;;;19.00;59.60;;;;;;4997221;28;20117;-75
2022/05/21 07:22:48;;;;;;;7.38;1.90;;;19.00;59.30;;;;;;4998906;28;20092;-75
2022/05/21 07:25:17;;;;;;;13.20;3.60;;;19.00;59.00;;;;;;4994377;28;20512;-75
2022/05/21 07:27:43;;;;;;;11.60;2.75;;;19.00;59.00;;;;;;4986292;28;20057;-76
2022/05/21 07:30:09;;;;;;;9.60;2.00;;;19.00;58.90;;;;;;4995912;28;20050;-77
2022/05/21 07:32:35;;;;;;;10.57;2.67;;;18.90;58.50;;;;;;4998770;28;20157;-77
2022/05/21 07:35:08;;;;;;;7.47;1.83;;;18.90;58.50;;;;;;4999859;28;20045;-77
2022/05/21 07:37:35;;;;;;;9.10;2.10;;;18.80;58.30;;;;;;5015009;28;20050;-77
2022/05/21 07:40:01;;;;;;;12.73;2.40;;;18.70;58.10;;;;;;5001760;28;20054;-77
2022/05/21 07:42:27;;;;;;;10.70;3.13;;;18.50;58.10;;;;;;5013459;28;20047;-78
2022/05/21 07:44:53;;;;;;;10.27;2.83;;;18.30;58.50;;;;;;4998409;28;20049;-77
2022/05/21 07:47:23;;;;;;;10.50;2.50;;;18.20;58.80;;;;;;4998330;28;20464;-78
2022/05/21 07:49:51;;;;;;;9.15;2.30;;;18.10;58.80;;;;;;4998760;28;20056;-78
2022/05/21 07:52:20;;;;;;;9.88;2.00;;;18.00;59.00;;;;;;5005015;28;20094;-78
2022/05/21 07:54:46;;;;;;;10.50;2.45;;;17.90;59.30;;;;;;4999285;28;20058;-77
2022/05/21 07:57:11;;;;;;;9.50;2.03;;;18.00;59.80;;;;;;5013861;28;20050;-78
2022/05/21 07:59:38;;;;;;;8.48;1.92;;;18.00;60.10;;;;;;4999318;28;20040;-78
2022/05/21 08:02:05;;;;;;;8.85;2.47;;;18.10;59.70;;;;;;4993040;28;20061;-81
2022/05/21 08:04:31;;;;;;;7.80;2.67;;;18.30;60.40;;;;;;5001194;28;20046;-79
2022/05/21 08:06:57;;;;;;;8.98;2.17;;;18.40;60.30;;;;;;4999494;28;20430;-78
2022/05/21 08:09:22;;;;;;;6.60;2.10;;;18.60;60.00;;;;;;5003941;28;20074;-80
2022/05/21 08:11:49;;;;;;;10.45;2.88;;;18.60;58.90;;;;;;5012983;28;20042;-79
2022/05/21 08:14:15;;;;;;;10.40;2.08;;;18.70;58.00;;;;;;5000899;28;20129;-79
2022/05/21 08:16:41;;;;;;;8.55;2.28;;;18.70;58.10;;;;;;4998719;28;20073;-80
2022/05/21 08:19:06;;;;;;;7.35;2.08;;;18.80;58.00;;;;;;4997969;28;20092;-80
2022/05/21 08:21:32;;;;;;;12.50;3.00;;;18.90;57.90;;;;;;5012934;28;20133;-78
2022/05/21 08:26:57;;;;;;;9.75;3.50;;;19.00;57.20;;;;;;4996203;28;20053;-80
2022/05/21 08:29:30;;;;;;;8.63;2.20;;;19.00;57.20;;;;;;5000422;28;20054;-80
2022/05/21 08:31:56;;;;;;;8.82;1.80;;;19.00;57.10;;;;;;4998800;28;20401;-79
2022/05/21 08:34:25;;;;;;;9.98;1.83;;;19.00;56.90;;;;;;4997260;28;20046;-80
2022/05/21 08:36:51;;;;;;;9.38;2.30;;;18.90;56.70;;;;;;4998805;28;20148;-79
2022/05/21 08:39:18;;;;;;;8.80;1.90;;;18.80;56.60;;;;;;4997821;28;20377;-80
2022/05/21 08:41:51;;;;;;;9.18;2.67;;;18.70;56.60;;;;;;4996258;28;20136;-80
2022/05/21 08:44:19;;;;;;;11.05;2.58;;;18.60;57.40;;;;;;4995068;28;20046;-80
2022/05/21 08:47:17;;;;;;;9.52;2.65;;;18.60;57.90;;;;;;4996064;28;20058;-80
2022/05/21 08:49:56;;;;;;;11.45;2.60;;;18.70;58.00;;;;;;4991635;28;20386;-80
2022/05/21 08:52:32;;;;;;;9.68;2.42;;;18.70;58.20;;;;;;4995372;28;20064;-79
2022/05/21 08:55:00;;;;;;;9.60;2.90;;;18.80;58.00;;;;;;5007973;28;20485;-80
2022/05/21 08:57:33;;;;;;;6.07;2.15;;;18.80;57.80;;;;;;4995842;28;20419;-80
2022/05/21 09:00:27;;;;;;;7.80;2.47;;;18.90;57.50;;;;;;4998599;28;20041;-80
2022/05/21 09:02:54;;;;;;;8.13;2.00;;;18.90;55.90;;;;;;5031514;28;20050;-79
2022/05/21 09:05:22;;;;;;;7.97;2.22;;;18.90;56.60;;;;;;5006278;28;20073;-79
2022/05/21 09:08:02;;;;;;;9.05;3.28;;;18.90;56.60;;;;;;4994666;28;20046;-79
2022/05/21 09:11:01;;;;;;;8.07;2.28;;;18.90;57.20;;;;;;4997888;28;20494;-79
2022/05/21 09:13:53;;;;;;;8.60;2.15;;;18.90;58.00;;;;;;4996619;28;20042;-80
2022/05/21 09:19:08;;;;;;;8.55;2.35;;;18.90;57.40;;;;;;5010215;28;20046;-80
2022/05/21 09:21:36;;;;;;;8.10;2.03;;;18.90;57.30;;;;;;4996794;28;20046;-79
2022/05/21 09:24:04;;;;;;;12.18;2.58;;;19.00;57.20;;;;;;4994947;28;20494;-79
2022/05/21 09:26:51;;;;;;;6.50;2.05;;;19.10;57.20;;;;;;5027760;28;20058;-79
2022/05/21 09:29:20;;;;;;;8.95;2.90;;;19.30;56.50;;;;;;5026466;28;20050;-79
2022/05/21 09:31:46;;;;;;;10.48;2.92;;;19.30;56.80;;;;;;4996040;28;20583;-79
2022/05/21 09:34:24;;;;;;;10.30;2.92;;;19.40;56.70;;;;;;4993269;28;20065;-80
2022/05/21 09:36:50;;;;;;;9.95;2.05;;;19.40;56.20;;;;;;4995125;28;20042;-78
2022/05/21 09:39:34;;;;;;;10.30;2.33;;;19.30;56.10;;;;;;4994973;28;20072;-79
2022/05/21 09:42:09;;;;;;;10.05;2.58;;;19.30;55.30;;;;;;4996989;28;20046;-79
2022/05/21 09:47:24;;;;;;;14.00;2.75;;;19.10;56.10;;;;;;4976120;28;20057;-79
2022/05/21 09:50:07;;;;;;;7.68;2.00;;;19.10;56.30;;;;;;4996878;28;20132;-80
2022/05/21 09:52:33;;;;;;;13.20;2.63;;;19.00;55.50;;;;;;5010747;28;20417;-78
2022/05/21 09:55:00;;;;;;;10.60;2.72;;;18.90;56.40;;;;;;5004832;28;20042;-78
2022/05/21 09:57:42;;;;;;;8.77;2.38;;;18.90;56.50;;;;;;5006390;28;20046;-79
2022/05/21 10:00:32;;;;;;;9.23;2.65;;;18.90;56.00;;;;;;4993819;28;20050;-79
2022/05/21 10:03:01;;;;;;;8.25;2.42;;;18.80;55.10;;;;;;5011106;28;20039;-79
2022/05/21 10:05:36;;;;;;;7.85;1.83;;;18.70;55.80;;;;;;4992306;28;20061;-79
2022/05/21 10:11:07;;;;;;;8.32;2.28;;;18.50;55.50;;;;;;4996941;28;20516;-79
2022/05/21 10:13:47;;;;;;;7.15;1.77;;;18.50;56.50;;;;;;4995009;28;20042;-79
2022/05/21 10:16:48;;;;;;;8.57;1.95;;;18.60;56.50;;;;;;5014634;28;20319;-79
2022/05/21 10:19:30;;;;;;;8.80;1.90;;;18.60;55.70;;;;;;4997699;28;20105;-78
2022/05/21 10:22:15;;;;;;;5.80;1.25;;;18.60;55.80;;;;;;4995480;28;20129;-79
2022/05/21 10:24:44;;;;;;;8.48;1.92;;;18.50;55.20;;;;;;4992554;28;20089;-80
2022/05/21 10:28:05;;;;;;;7.13;1.70;;;18.60;56.20;;;;;;5017699;28;20060;-79
2022/05/21 10:30:52;;;;;;;7.13;1.70;;;18.60;56.00;;;;;;4964040;28;20054;-78
2022/05/21 10:33:41;;;;;;;13.05;2.35;;;18.60;56.10;;;;;;4970656;28;20402;-80
2022/05/21 10:36:15;;;;;;;8.90;2.17;;;18.50;55.80;;;;;;4957748;28;20043;-80
2022/05/21 10:38:41;;;;;;;8.60;2.05;;;18.50;56.80;;;;;;4937520;29;20066;-79
2022/05/21 10:41:27;;;;;;;5.88;1.70;;;18.60;56.90;;;;;;4955021;28;20071;-80
2022/05/21 10:44:01;;;;;;;7.43;2.00;;;18.60;56.50;;;;;;4953312;28;20482;-79
2022/05/21 10:46:42;;;;;;;9.95;2.40;;;18.60;56.70;;;;;;4954783;28;20071;-80
2022/05/21 10:49:41;;;;;;;11.63;2.15;;;18.70;56.90;;;;;;4937134;29;20546;-80
2022/05/21 10:52:30;;;;;;;9.45;2.05;;;18.70;56.90;;;;;;4949527;28;20103;-80
2022/05/21 10:55:12;;;;;;;9.50;3.35;;;18.80;57.20;;;;;;4953504;28;20122;-81
2022/05/21 10:57:38;;;;;;;8.43;2.33;;;18.90;57.80;;;;;;4954226;28;20498;-81
2022/05/21 11:00:25;;;;;;;12.15;3.88;;;19.00;56.90;;;;;;4969460;28;20044;-80
2022/05/21 11:03:18;;;;;;;8.57;2.53;;;19.00;56.10;;;;;;4956667;28;20455;-80
2022/05/21 11:06:02;;;;;;;10.55;2.50;;;19.00;55.70;;;;;;4973145;28;20101;-80
2022/05/21 11:08:37;;;;;;;10.70;2.50;;;19.00;56.30;;;;;;4974740;28;20545;-79
2022/05/21 11:11:23;;;;;;;10.23;2.55;;;19.00;56.80;;;;;;4994129;28;20536;-80
2022/05/21 11:14:21;;;;;;;8.43;2.30;;;19.00;56.40;;;;;;4994459;28;20078;-80
2022/05/21 11:17:02;;;;;;;9.20;2.28;;;19.00;56.90;;;;;;5003376;28;20375;-79
2022/05/21 11:19:51;;;;;;;7.95;2.47;;;19.00;56.30;;;;;;4993114;28;20078;-79
2022/05/21 11:22:24;;;;;;;8.60;2.35;;;19.10;57.30;;;;;;5011960;28;20053;-80
2022/05/21 11:25:28;;;;;;;8.68;2.53;;;19.10;57.20;;;;;;5005100;28;20038;-80
2022/05/21 11:28:20;;;;;;;8.88;2.72;;;19.20;56.10;;;;;;4980298;28;20051;-80
2022/05/21 11:30:46;;;;;;;8.15;2.28;;;19.20;56.10;;;;;;4944992;28;20054;-81
2022/05/21 11:38:55;;;;;;;11.00;2.42;;;19.20;56.90;;;;;;4977895;28;20045;-80
2022/05/21 11:41:42;;;;;;;6.70;2.15;;;19.10;55.60;;;;;;4982658;28;20086;-80
2022/05/21 11:47:08;;;;;;;10.30;2.92;;;19.10;55.90;;;;;;4972398;28;20043;-80
2022/05/21 11:49:49;;;;;;;8.13;3.08;;;19.10;56.10;;;;;;4958452;28;20058;-79
2022/05/21 11:52:26;;;;;;;10.98;2.80;;;19.00;56.10;;;;;;4976121;28;20519;-80
2022/05/21 11:54:55;;;;;;;8.88;2.08;;;19.00;56.00;;;;;;4972598;28;20158;-80
2022/05/21 11:57:39;;;;;;;7.95;1.70;;;19.00;56.00;;;;;;4975646;28;20051;-79
2022/05/21 12:00:08;;;;;;;7.97;2.13;;;19.00;56.00;;;;;;4959861;28;20054;-80
2022/05/21 12:02:38;;;;;;;8.73;1.85;;;18.90;56.10;;;;;;4999939;28;20056;-80
2022/05/21 12:05:11;;;;;;;9.70;2.75;;;18.90;55.40;;;;;;4999894;28;20515;-80
2022/05/21 12:07:48;;;;;;;8.25;2.22;;;18.90;54.90;;;;;;5015820;28;20057;-80
2022/05/21 12:10:22;;;;;;;7.70;2.40;;;18.80;55.50;;;;;;5009066;28;20061;-80
2022/05/21 12:13:18;;;;;;;8.60;2.72;;;18.70;55.50;;;;;;4997732;28;20117;-80
2022/05/21 12:15:52;;;;;;;9.30;1.90;;;18.70;55.50;;;;;;4960710;28;20499;-80
2022/05/21 12:18:37;;;;;;;9.23;2.05;;;18.60;55.30;;;;;;4940117;29;20492;-80
2022/05/21 12:21:03;;;;;;;10.65;2.78;;;18.60;54.90;;;;;;4962796;28;20043;-81
2022/05/21 12:23:32;;;;;;;8.70;2.38;;;18.50;55.30;;;;;;4955725;29;20054;-80
2022/05/21 12:26:00;;;;;;;9.88;2.78;;;18.40;55.10;;;;;;4967919;28;20159;-81
2022/05/21 12:28:41;;;;;;;8.07;2.13;;;18.30;55.50;;;;;;4963061;28;20079;-80
2022/05/21 12:31:12;;;;;;;9.75;2.30;;;18.30;55.80;;;;;;4969601;28;20047;-80
2022/05/21 12:33:50;;;;;;;9.02;2.42;;;18.10;56.30;;;;;;4948281;29;20066;-80
2022/05/21 12:36:28;;;;;;;8.50;2.35;;;18.10;56.30;;;;;;4954907;29;20456;-80
2022/05/21 12:38:55;;;;;;;7.88;2.25;;;18.10;56.40;;;;;;4954949;29;20095;-80
2022/05/21 12:41:35;;;;;;;9.95;2.08;;;18.00;56.80;;;;;;4972762;28;20047;-82
2022/05/21 12:44:02;;;;;;;8.98;2.05;;;18.00;57.00;;;;;;4955019;28;20809;-80
2022/05/21 12:46:32;;;;;;;13.50;2.78;;;17.90;57.10;;;;;;4954445;29;20057;-80
2022/05/21 12:49:01;;;;;;;10.13;2.60;;;17.90;57.60;;;;;;4954766;29;20051;-80
2022/05/21 12:51:37;;;;;;;7.18;1.90;;;18.00;58.30;;;;;;4964030;28;20150;-80
2022/05/21 12:54:07;;;;;;;7.15;2.20;;;18.00;59.10;;;;;;5002168;28;20484;-80
2022/05/21 12:56:37;;;;;;;9.77;2.05;;;18.10;58.60;;;;;;4975574;28;20042;-80
2022/05/21 12:59:18;;;;;;;5.97;1.55;;;18.20;58.40;;;;;;4976652;28;20057;-81
2022/05/21 13:02:01;;;;;;;9.00;2.08;;;18.40;57.20;;;;;;4991564;28;20086;-81
2022/05/21 13:04:27;;;;;;;7.25;1.50;;;18.50;56.20;;;;;;4987073;28;20046;-82
2022/05/21 13:07:01;;;;;;;6.97;1.50;;;18.60;55.30;;;;;;4995676;28;20081;-80
2022/05/21 13:09:27;;;;;;;8.82;1.70;;;18.70;55.20;;;;;;4993669;28;20054;-81
2022/05/21 13:11:53;;;;;;;6.25;1.35;;;18.80;54.70;;;;;;4997018;28;20426;-81
2022/05/21 13:14:29;;;;;;;4.70;1.38;;;18.90;54.80;;;;;;5001813;28;20482;-83
2022/05/21 13:16:58;;;;;;;6.60;2.13;;;19.00;53.90;;;;;;4994037;28;20050;-81
2022/05/21 13:20:10;;;;;;;8.40;1.60;;;19.10;54.10;;;;;;4993083;28;20076;-82
2022/05/21 13:22:51;;;;;;;7.70;1.83;;;19.20;53.60;;;;;;5005319;28;20061;-80
2022/05/21 13:25:16;;;;;;;4.50;1.42;;;19.30;54.00;;;;;;4999239;28;20050;-83
2022/05/21 13:27:55;;;;;;;8.25;1.30;;;19.30;53.90;;;;;;5009140;28;20052;-82
2022/05/21 13:30:35;;;;;;;5.72;1.30;;;19.40;53.70;;;;;;5002124;28;20057;-81
2022/05/21 13:33:03;;;;;;;7.60;2.13;;;19.50;53.80;;;;;;4992846;28;20683;-83